Time;durP1;ratioP1;P1;durP2;ratioP2;P2;SDS_P1;SDS_P2;PMS_P1;PMS_P2;Temp;Humidity;BMP_temperature;BMP_pressure;BME280_temperature;BME280_humidity;BME280_pressure;Samples;Min_cycle;Max_cycle;Signal;HPM_P1;HPM_P2
2023/09/17 00:00:37;;;;;;;0.40;0.40;;;14.30;99.90;;;;;;5090982;28;20046;-75
2023/09/17 00:03:03;;;;;;;0.95;0.95;;;14.40;99.90;;;;;;5090767;28;20092;-74
2023/09/17 00:05:31;;;;;;;0.93;0.93;;;14.30;99.90;;;;;;5090190;28;20454;-75
2023/09/17 00:07:57;;;;;;;;;;;14.40;99.90;;;;;;5091776;28;20548;-72
2023/09/17 00:10:23;;;;;;;0.70;0.70;;;14.40;99.90;;;;;;5090282;28;19919;-75
2023/09/17 00:12:53;;;;;;;0.50;0.45;;;14.40;99.90;;;;;;5076338;28;20036;-75
2023/09/17 00:15:20;;;;;;;0.60;0.60;;;14.40;99.90;;;;;;5092000;28;20048;-75
2023/09/17 00:17:45;;;;;;;0.40;0.40;;;14.50;99.90;;;;;;5094414;28;20073;-75
2023/09/17 00:20:12;;;;;;;0.77;0.77;;;14.40;99.90;;;;;;5091868;28;20482;-75
2023/09/17 00:22:38;;;;;;;0.47;0.47;;;14.50;99.90;;;;;;5094860;28;20043;-75
2023/09/17 00:25:05;;;;;;;0.40;0.40;;;14.50;99.90;;;;;;5084880;28;20846;-75
2023/09/17 00:27:32;;;;;;;0.60;0.60;;;14.60;99.90;;;;;;5089875;27;20119;-75
2023/09/17 00:29:57;;;;;;;0.63;0.63;;;14.60;99.90;;;;;;5103400;27;20127;-75
2023/09/17 00:32:23;;;;;;;0.47;0.47;;;14.60;99.90;;;;;;5106622;28;20086;-75
2023/09/17 00:34:49;;;;;;;0.60;0.60;;;14.60;99.90;;;;;;5105658;28;20591;-75
2023/09/17 00:37:15;;;;;;;0.55;0.55;;;14.70;99.90;;;;;;5107694;28;20047;-75
2023/09/17 00:39:40;;;;;;;1.70;0.73;;;14.70;99.90;;;;;;5105783;27;20055;-75
2023/09/17 00:42:06;;;;;;;0.77;0.77;;;14.70;99.90;;;;;;5107024;27;20876;-75
2023/09/17 00:44:32;;;;;;;0.55;0.55;;;14.70;99.90;;;;;;5086939;28;20459;-75
2023/09/17 00:47:02;;;;;;;1.23;1.23;;;14.70;99.90;;;;;;5091002;28;20048;-75
2023/09/17 00:49:28;;;;;;;0.50;0.50;;;14.80;99.90;;;;;;5093628;28;20069;-75
2023/09/17 00:51:54;;;;;;;0.38;0.38;;;14.80;99.90;;;;;;5100588;27;20091;-75
2023/09/17 00:54:23;;;;;;;1.20;1.20;;;14.80;99.90;;;;;;5089956;27;20804;-75
2023/09/17 00:56:51;;;;;;;1.08;1.08;;;14.80;99.90;;;;;;5085363;28;20044;-75
2023/09/17 00:59:17;;;;;;;0.57;0.57;;;14.90;99.90;;;;;;5099914;27;20040;-75
2023/09/17 01:01:43;;;;;;;1.05;1.02;;;14.80;99.90;;;;;;5114450;27;20044;-75
2023/09/17 01:04:11;;;;;;;0.70;0.70;;;14.90;99.90;;;;;;5071878;28;20132;-75
2023/09/17 01:06:38;;;;;;;0.82;0.82;;;14.90;99.90;;;;;;5088021;27;20050;-75
2023/09/17 01:09:05;;;;;;;0.80;0.80;;;14.90;99.90;;;;;;5088740;27;20127;-75
2023/09/17 01:11:30;;;;;;;0.40;0.40;;;14.90;99.90;;;;;;5094902;27;20043;-75
2023/09/17 01:14:08;;;;;;;0.30;0.30;;;14.90;99.90;;;;;;5108501;27;20051;-75
2023/09/17 01:16:34;;;;;;;0.55;0.55;;;14.90;99.90;;;;;;5091873;28;20077;-75
2023/09/17 01:19:01;;;;;;;0.68;0.68;;;14.90;99.90;;;;;;5104476;28;20055;-74
2023/09/17 01:21:36;;;;;;;0.77;0.75;;;14.90;99.90;;;;;;5092331;28;20423;-75
2023/09/17 01:24:26;;;;;;;0.77;0.77;;;14.90;99.90;;;;;;5094502;27;20073;-75
2023/09/17 01:27:02;;;;;;;0.40;0.40;;;14.90;99.90;;;;;;5097052;27;20516;-75
2023/09/17 01:29:35;;;;;;;0.55;0.55;;;14.90;99.90;;;;;;5084969;28;20500;-74
2023/09/17 01:32:00;;;;;;;0.70;0.70;;;14.90;99.90;;;;;;5109531;27;20050;-74
2023/09/17 01:34:27;;;;;;;0.68;0.68;;;14.90;99.90;;;;;;5106670;27;20035;-74
2023/09/17 01:36:57;;;;;;;0.40;0.40;;;14.90;99.90;;;;;;5087455;28;20040;-74
2023/09/17 01:39:27;;;;;;;0.65;0.65;;;14.90;99.90;;;;;;5090802;28;20122;-74
2023/09/17 01:41:53;;;;;;;0.40;0.40;;;14.90;99.90;;;;;;5092347;28;20139;-75
2023/09/17 01:44:21;;;;;;;0.75;0.75;;;14.90;99.90;;;;;;5089913;28;20054;-75
2023/09/17 01:46:48;;;;;;;0.40;0.40;;;14.90;99.90;;;;;;5102495;28;20131;-75
2023/09/17 01:49:14;;;;;;;0.63;0.63;;;14.90;99.90;;;;;;5096412;28;20869;-75
2023/09/17 01:51:41;;;;;;;0.40;0.40;;;14.90;99.90;;;;;;5103680;28;20047;-75
2023/09/17 01:54:08;;;;;;;1.05;0.95;;;14.90;99.90;;;;;;5107295;28;20062;-75
2023/09/17 01:56:41;;;;;;;0.43;0.43;;;15.00;99.90;;;;;;5107562;28;20074;-75
2023/09/17 01:59:07;;;;;;;0.50;0.50;;;15.00;99.90;;;;;;5085934;28;20052;-75
2023/09/17 02:01:33;;;;;;;0.65;0.65;;;15.00;99.90;;;;;;5096742;28;20511;-75
2023/09/17 02:03:58;;;;;;;0.70;0.70;;;15.00;99.90;;;;;;5101549;28;20039;-75
2023/09/17 02:06:24;;;;;;;0.40;0.40;;;15.00;99.90;;;;;;5090910;28;20108;-75
2023/09/17 02:08:50;;;;;;;0.80;0.80;;;15.00;99.90;;;;;;5072980;28;20047;-75
2023/09/17 02:11:15;;;;;;;0.30;0.30;;;15.00;99.90;;;;;;5083255;28;20044;-75
2023/09/17 02:13:41;;;;;;;0.60;0.60;;;15.00;99.90;;;;;;5100964;28;20123;-75
2023/09/17 02:16:07;;;;;;;0.55;0.55;;;15.00;99.90;;;;;;5090674;28;20493;-75
2023/09/17 02:18:33;;;;;;;1.20;0.95;;;15.00;99.90;;;;;;5092084;28;20090;-75
2023/09/17 02:20:58;;;;;;;0.50;0.50;;;15.00;99.90;;;;;;5106569;28;20044;-75
2023/09/17 02:23:24;;;;;;;0.40;0.40;;;15.00;99.90;;;;;;5086234;28;20055;-75
2023/09/17 02:25:49;;;;;;;0.63;0.63;;;15.00;99.90;;;;;;5090469;28;20079;-75
2023/09/17 02:28:15;;;;;;;0.63;0.63;;;15.00;99.90;;;;;;5082746;28;20051;-75
2023/09/17 02:30:41;;;;;;;0.70;0.70;;;15.00;99.90;;;;;;5086679;28;20040;-75
2023/09/17 02:33:10;;;;;;;0.80;0.80;;;15.00;99.90;;;;;;5091121;28;20404;-75
2023/09/17 02:35:37;;;;;;;0.45;0.45;;;15.00;99.90;;;;;;5088841;28;20381;-75
2023/09/17 02:38:04;;;;;;;0.40;0.40;;;15.00;99.90;;;;;;5089281;28;20046;-74
2023/09/17 02:40:29;;;;;;;0.88;0.82;;;15.10;99.90;;;;;;5087233;28;20048;-75
2023/09/17 02:42:55;;;;;;;0.70;0.70;;;15.00;99.90;;;;;;5092987;28;20050;-74
2023/09/17 02:45:21;;;;;;;0.50;0.50;;;15.00;99.90;;;;;;5085367;28;20047;-75
2023/09/17 02:47:46;;;;;;;0.50;0.50;;;15.10;99.90;;;;;;5110631;27;20127;-74
2023/09/17 02:50:12;;;;;;;0.98;0.98;;;15.00;99.90;;;;;;5092405;28;20564;-75
2023/09/17 02:52:38;;;;;;;0.73;0.73;;;15.00;99.90;;;;;;5092155;28;20043;-75
2023/09/17 02:55:04;;;;;;;0.50;0.50;;;15.00;99.90;;;;;;5110936;28;20071;-75
2023/09/17 02:57:30;;;;;;;0.57;0.57;;;15.00;99.90;;;;;;5092092;28;20036;-75
2023/09/17 02:59:56;;;;;;;0.50;0.50;;;15.00;99.90;;;;;;5109301;28;20093;-75
2023/09/17 03:02:21;;;;;;;0.70;0.70;;;15.00;99.90;;;;;;5109349;28;20044;-75
2023/09/17 03:04:51;;;;;;;0.50;0.50;;;15.00;99.90;;;;;;5108510;28;20143;-75
2023/09/17 03:07:18;;;;;;;0.98;0.88;;;15.00;99.90;;;;;;5078107;28;20504;-74
2023/09/17 03:09:45;;;;;;;0.38;0.38;;;15.00;99.90;;;;;;5103755;28;20515;-75
2023/09/17 03:12:11;;;;;;;0.50;0.50;;;15.00;99.90;;;;;;5097289;28;20051;-75
2023/09/17 03:14:36;;;;;;;0.40;0.40;;;15.00;99.90;;;;;;5113560;27;22168;-75
2023/09/17 03:17:05;;;;;;;1.10;1.00;;;15.00;99.90;;;;;;5088486;28;20123;-75
2023/09/17 03:19:30;;;;;;;;;;;15.00;99.90;;;;;;5093934;28;20167;-75
2023/09/17 03:21:56;;;;;;;0.32;0.32;;;15.00;99.90;;;;;;5095506;28;20721;-75
2023/09/17 03:24:22;;;;;;;0.95;0.95;;;15.00;99.90;;;;;;5110388;28;20532;-75
2023/09/17 03:26:47;;;;;;;0.68;0.68;;;15.00;99.90;;;;;;5107225;27;20066;-75
2023/09/17 03:29:13;;;;;;;0.38;0.38;;;15.00;99.90;;;;;;5096624;27;20059;-75
2023/09/17 03:31:41;;;;;;;0.63;0.63;;;15.10;99.90;;;;;;5095523;28;20515;-75
2023/09/17 03:34:06;;;;;;;0.70;0.70;;;15.10;99.90;;;;;;5090942;28;20063;-75
2023/09/17 03:36:35;;;;;;;1.48;1.38;;;15.10;99.90;;;;;;5090698;28;20043;-75
2023/09/17 03:39:01;;;;;;;0.95;0.73;;;15.10;99.90;;;;;;5097333;28;20043;-75
2023/09/17 03:41:26;;;;;;;0.80;0.80;;;15.10;99.90;;;;;;5108873;28;20812;-75
2023/09/17 03:43:52;;;;;;;0.50;0.50;;;15.10;99.90;;;;;;5123347;27;20412;-75
2023/09/17 03:46:18;;;;;;;0.75;0.75;;;15.10;99.90;;;;;;5090941;28;20055;-75
2023/09/17 03:48:46;;;;;;;0.52;0.52;;;15.10;99.90;;;;;;5094496;28;20173;-75
2023/09/17 03:51:11;;;;;;;0.40;0.40;;;15.20;99.90;;;;;;5100265;28;20788;-75
2023/09/17 03:53:37;;;;;;;0.60;0.60;;;15.10;99.90;;;;;;5101316;28;20048;-75
2023/09/17 03:56:04;;;;;;;0.77;0.77;;;15.10;99.90;;;;;;5087515;28;20047;-75
2023/09/17 03:58:30;;;;;;;0.50;0.50;;;15.10;99.90;;;;;;5109142;28;20151;-75
2023/09/17 04:00:55;;;;;;;0.50;0.50;;;15.10;99.90;;;;;;5088065;28;21946;-76
2023/09/17 04:03:21;;;;;;;1.00;0.90;;;15.10;99.90;;;;;;5091687;27;20092;-75
2023/09/17 04:05:49;;;;;;;0.45;0.45;;;15.10;99.90;;;;;;5094227;27;20043;-75
2023/09/17 04:08:15;;;;;;;2.17;1.52;;;15.10;99.90;;;;;;5096411;28;20054;-75
2023/09/17 04:10:40;;;;;;;0.30;0.30;;;15.10;99.90;;;;;;5085463;28;20072;-75
2023/09/17 04:13:06;;;;;;;0.77;0.77;;;15.10;99.90;;;;;;5110972;27;20128;-75
2023/09/17 04:15:32;;;;;;;0.30;0.30;;;15.10;99.90;;;;;;5093548;28;20046;-75
2023/09/17 04:17:58;;;;;;;0.88;0.88;;;15.10;99.90;;;;;;5078981;28;20072;-75
2023/09/17 04:20:24;;;;;;;0.85;0.85;;;15.10;99.90;;;;;;5080271;28;20595;-75
2023/09/17 04:22:50;;;;;;;0.50;0.50;;;15.10;99.90;;;;;;5090977;28;20039;-75
2023/09/17 04:25:18;;;;;;;0.50;0.50;;;15.10;99.90;;;;;;5090542;28;20078;-76
2023/09/17 04:27:45;;;;;;;0.88;0.82;;;15.10;99.90;;;;;;5089360;28;20064;-76
2023/09/17 04:30:13;;;;;;;0.30;0.30;;;15.10;99.90;;;;;;5073381;28;20040;-75
2023/09/17 04:32:41;;;;;;;1.75;0.85;;;15.20;99.90;;;;;;5084887;28;20044;-76
2023/09/17 04:35:11;;;;;;;0.75;0.75;;;15.20;99.90;;;;;;5086140;28;20040;-76
2023/09/17 04:37:40;;;;;;;2.05;0.85;;;15.20;99.90;;;;;;5087527;28;20043;-76
2023/09/17 04:40:11;;;;;;;0.50;0.50;;;15.20;99.90;;;;;;5103121;28;20073;-75
2023/09/17 04:42:38;;;;;;;1.33;1.33;;;15.20;99.90;;;;;;5083448;28;20054;-75
2023/09/17 04:45:05;;;;;;;0.70;0.70;;;15.20;99.90;;;;;;5092169;28;20048;-75
2023/09/17 04:47:34;;;;;;;0.47;0.47;;;15.20;99.90;;;;;;5088077;28;20316;-75
2023/09/17 04:50:00;;;;;;;0.63;0.63;;;15.10;99.90;;;;;;5097698;28;20146;-76
2023/09/17 04:52:26;;;;;;;0.50;0.50;;;15.10;99.90;;;;;;5092553;28;20647;-76
2023/09/17 04:54:52;;;;;;;0.73;0.73;;;15.20;99.90;;;;;;5088117;28;20044;-75
2023/09/17 04:57:17;;;;;;;0.50;0.50;;;15.20;99.90;;;;;;5094697;28;20092;-77
2023/09/17 04:59:43;;;;;;;0.40;0.40;;;15.20;99.90;;;;;;5087419;28;20036;-76
2023/09/17 05:02:09;;;;;;;0.95;0.95;;;15.20;99.90;;;;;;5087000;28;20054;-76
2023/09/17 05:04:34;;;;;;;0.82;0.82;;;15.20;99.90;;;;;;5090168;28;20762;-76
2023/09/17 05:07:00;;;;;;;1.27;1.23;;;15.20;99.90;;;;;;5088497;28;20142;-77
2023/09/17 05:09:26;;;;;;;0.77;0.77;;;15.20;99.90;;;;;;5082293;28;20135;-76
2023/09/17 05:11:52;;;;;;;3.47;1.33;;;15.20;99.90;;;;;;5098265;28;20391;-77
2023/09/17 05:14:18;;;;;;;1.63;1.52;;;15.20;99.90;;;;;;5091238;28;20055;-77
2023/09/17 05:16:43;;;;;;;2.92;1.48;;;15.20;99.90;;;;;;5088905;28;20044;-77
2023/09/17 05:19:09;;;;;;;1.42;1.35;;;15.10;99.90;;;;;;5094632;28;20088;-76
2023/09/17 05:21:35;;;;;;;0.82;0.80;;;15.10;99.90;;;;;;5087792;28;20044;-76
2023/09/17 05:24:01;;;;;;;1.17;1.15;;;15.10;99.90;;;;;;5087167;28;20046;-77
2023/09/17 05:26:26;;;;;;;1.90;1.73;;;15.10;99.90;;;;;;5081648;28;20040;-77
2023/09/17 05:28:52;;;;;;;0.70;0.70;;;15.10;99.90;;;;;;5086939;28;20040;-77
2023/09/17 05:31:18;;;;;;;1.95;1.60;;;15.10;99.90;;;;;;5081252;28;20052;-75
2023/09/17 05:33:43;;;;;;;1.27;1.27;;;15.10;99.90;;;;;;5090320;28;20075;-75
2023/09/17 05:36:09;;;;;;;1.45;1.35;;;15.20;99.90;;;;;;5082317;28;20055;-77
2023/09/17 05:38:36;;;;;;;1.05;0.85;;;15.20;99.90;;;;;;5084874;28;20044;-78
2023/09/17 05:41:01;;;;;;;3.22;1.15;;;15.20;99.90;;;;;;5100781;28;20484;-80
2023/09/17 05:43:27;;;;;;;3.20;2.28;;;15.20;99.90;;;;;;5086258;28;20047;-80
2023/09/17 05:45:56;;;;;;;1.70;1.60;;;15.30;99.90;;;;;;5087867;28;20036;-81
2023/09/17 05:48:44;;;;;;;2.33;2.15;;;15.30;99.90;;;;;;5084974;28;20055;-80
2023/09/17 05:51:15;;;;;;;2.72;2.60;;;15.30;99.90;;;;;;5115070;27;20040;-80
2023/09/17 05:53:41;;;;;;;0.90;0.90;;;15.40;99.90;;;;;;5088646;28;20040;-80
2023/09/17 05:56:08;;;;;;;1.80;1.70;;;15.40;99.90;;;;;;5095382;28;20074;-81
2023/09/17 05:58:34;;;;;;;2.45;2.05;;;15.40;99.90;;;;;;5080919;28;20044;-81
2023/09/17 06:01:00;;;;;;;1.25;1.23;;;15.50;99.90;;;;;;5085015;28;20059;-80
2023/09/17 06:03:25;;;;;;;2.13;2.03;;;15.50;99.90;;;;;;5090669;28;20043;-80
2023/09/17 06:05:55;;;;;;;2.13;2.03;;;15.50;99.90;;;;;;5084305;28;20864;-82
2023/09/17 06:08:21;;;;;;;1.55;1.45;;;15.60;99.90;;;;;;5082942;28;20044;-80
2023/09/17 06:10:47;;;;;;;1.67;1.50;;;15.60;99.90;;;;;;5087703;28;20075;-80
2023/09/17 06:13:15;;;;;;;1.88;1.77;;;15.60;99.90;;;;;;5069918;28;20189;-79
2023/09/17 06:15:41;;;;;;;1.27;1.23;;;15.70;99.90;;;;;;5083894;28;20178;-79
2023/09/17 06:18:07;;;;;;;0.77;0.73;;;15.60;99.90;;;;;;5092842;28;20131;-78
2023/09/17 06:20:33;;;;;;;1.15;1.15;;;15.70;99.90;;;;;;5088039;28;20397;-79
2023/09/17 06:22:59;;;;;;;2.28;2.15;;;15.70;99.90;;;;;;5093624;28;20051;-78
2023/09/17 06:25:24;;;;;;;5.25;1.55;;;15.70;99.90;;;;;;5098651;28;20103;-79
2023/09/17 06:27:50;;;;;;;2.30;2.20;;;15.70;99.90;;;;;;5099058;28;20416;-78
2023/09/17 06:30:17;;;;;;;1.35;1.35;;;15.80;99.90;;;;;;5089498;28;20074;-79
2023/09/17 06:32:43;;;;;;;0.88;0.88;;;15.80;99.90;;;;;;5089862;28;20059;-79
2023/09/17 06:35:09;;;;;;;1.38;1.27;;;15.80;99.90;;;;;;5098806;28;20056;-79
2023/09/17 06:37:37;;;;;;;1.92;1.33;;;15.80;99.90;;;;;;5090112;28;20561;-79
2023/09/17 06:40:04;;;;;;;1.40;1.33;;;15.90;99.90;;;;;;5090274;28;20039;-79
2023/09/17 06:42:30;;;;;;;1.77;1.38;;;15.90;99.90;;;;;;5095487;28;20048;-79
2023/09/17 06:44:55;;;;;;;2.65;2.55;;;15.90;99.90;;;;;;5089816;28;20113;-79
2023/09/17 06:47:21;;;;;;;2.40;2.20;;;16.00;99.90;;;;;;5091013;28;20047;-79
2023/09/17 06:49:47;;;;;;;2.42;2.22;;;16.00;99.90;;;;;;5089068;28;20462;-79
2023/09/17 06:52:13;;;;;;;3.25;3.05;;;16.00;99.90;;;;;;5087432;28;20048;-79
2023/09/17 06:54:38;;;;;;;2.38;2.25;;;16.10;99.90;;;;;;5085849;28;20049;-79
2023/09/17 06:57:04;;;;;;;2.80;2.38;;;16.10;99.90;;;;;;5085926;28;20046;-79
2023/09/17 06:59:30;;;;;;;1.65;1.55;;;16.10;99.90;;;;;;5090187;28;20138;-79
2023/09/17 07:01:56;;;;;;;1.77;1.67;;;16.20;99.90;;;;;;5089852;28;20040;-80
2023/09/17 07:04:21;;;;;;;3.00;2.75;;;16.20;99.90;;;;;;5093657;28;20048;-80
2023/09/17 07:06:47;;;;;;;3.15;2.92;;;16.20;99.90;;;;;;5094093;28;20112;-80
2023/09/17 07:09:13;;;;;;;3.08;2.50;;;16.30;99.90;;;;;;5080175;28;20056;-79
2023/09/17 07:11:39;;;;;;;2.58;1.50;;;16.30;99.90;;;;;;5090930;28;20088;-79
2023/09/17 07:14:09;;;;;;;1.13;0.80;;;16.30;99.90;;;;;;5084196;28;20041;-79
2023/09/17 07:16:36;;;;;;;2.25;2.05;;;16.40;99.90;;;;;;5088430;28;20048;-79
2023/09/17 07:19:03;;;;;;;2.30;2.15;;;16.40;99.90;;;;;;5087998;28;20052;-79
2023/09/17 07:21:30;;;;;;;2.65;2.45;;;16.40;99.90;;;;;;5089738;28;20048;-79
2023/09/17 07:23:57;;;;;;;2.90;2.53;;;16.50;99.90;;;;;;5087506;28;20056;-78
2023/09/17 07:26:23;;;;;;;1.25;1.25;;;16.50;99.90;;;;;;5088614;28;20106;-78
2023/09/17 07:28:49;;;;;;;1.33;1.33;;;16.60;99.90;;;;;;5078989;28;20076;-79
2023/09/17 07:31:15;;;;;;;1.40;1.38;;;16.60;99.90;;;;;;5088086;28;20047;-79
2023/09/17 07:33:42;;;;;;;3.85;2.17;;;16.70;99.90;;;;;;5088396;28;20040;-80
2023/09/17 07:36:13;;;;;;;1.60;1.50;;;16.70;99.90;;;;;;5086977;28;20052;-80
2023/09/17 07:38:39;;;;;;;1.92;1.67;;;16.80;99.90;;;;;;5092047;28;20055;-80
2023/09/17 07:41:05;;;;;;;1.95;1.85;;;16.90;99.90;;;;;;5089676;28;20486;-79
2023/09/17 07:43:30;;;;;;;3.30;3.15;;;17.00;99.90;;;;;;5090391;28;20044;-80
2023/09/17 07:45:56;;;;;;;2.92;2.72;;;17.10;99.90;;;;;;5088343;28;20048;-79
2023/09/17 07:48:24;;;;;;;2.88;2.63;;;17.20;99.90;;;;;;5094863;28;20036;-80
2023/09/17 07:51:00;;;;;;;3.55;3.33;;;17.20;99.90;;;;;;5088168;28;20106;-80
2023/09/17 07:53:27;;;;;;;3.60;3.30;;;17.30;99.90;;;;;;5088806;28;20070;-80
2023/09/17 07:55:53;;;;;;;2.85;2.38;;;17.30;99.90;;;;;;5083545;28;20119;-80
2023/09/17 07:58:19;;;;;;;2.97;2.75;;;17.40;99.90;;;;;;5085928;28;20100;-80
2023/09/17 08:00:45;;;;;;;3.03;2.72;;;17.40;99.90;;;;;;5088511;28;20040;-80
2023/09/17 08:03:16;;;;;;;3.67;3.38;;;17.50;99.90;;;;;;5098496;28;20532;-80
2023/09/17 08:05:47;;;;;;;3.55;2.70;;;17.50;99.90;;;;;;5087141;28;20043;-79
2023/09/17 08:08:14;;;;;;;3.15;2.95;;;17.50;99.90;;;;;;5090327;28;20048;-80
2023/09/17 08:10:40;;;;;;;2.75;2.47;;;17.50;99.90;;;;;;5091990;28;20121;-79
2023/09/17 08:13:06;;;;;;;4.25;3.15;;;17.60;99.90;;;;;;5087780;28;20068;-79
2023/09/17 08:15:34;;;;;;;2.25;2.15;;;17.60;99.90;;;;;;5088697;28;20040;-80
2023/09/17 08:18:00;;;;;;;;;;;17.60;99.90;;;;;;5088295;28;20048;-79
2023/09/17 08:20:25;;;;;;;2.80;2.47;;;17.60;99.90;;;;;;5088881;28;20408;-79
2023/09/17 08:22:52;;;;;;;1.90;1.80;;;17.60;99.90;;;;;;5093882;28;20055;-79
2023/09/17 08:25:18;;;;;;;4.38;3.97;;;17.70;99.90;;;;;;5089475;28;20060;-79
2023/09/17 08:27:45;;;;;;;6.07;3.70;;;17.70;99.90;;;;;;5068276;28;20145;-78
2023/09/17 08:30:12;;;;;;;1.70;1.60;;;17.70;99.90;;;;;;5086985;28;20047;-79
2023/09/17 08:32:39;;;;;;;2.33;2.17;;;17.70;99.90;;;;;;5080593;28;20488;-79
2023/09/17 08:35:07;;;;;;;1.50;1.50;;;17.70;99.90;;;;;;5083800;28;20044;-79
2023/09/17 08:37:37;;;;;;;1.55;1.45;;;17.80;99.90;;;;;;5099289;28;20052;-79
2023/09/17 08:40:10;;;;;;;3.33;3.03;;;17.80;99.90;;;;;;5091604;28;20521;-78
2023/09/17 08:42:42;;;;;;;4.22;3.85;;;17.90;99.90;;;;;;5083490;28;20044;-79
2023/09/17 08:45:12;;;;;;;2.88;2.22;;;17.90;99.90;;;;;;5095448;28;20048;-78
2023/09/17 08:47:38;;;;;;;4.22;3.20;;;18.00;99.90;;;;;;5089677;28;20096;-77
2023/09/17 08:50:09;;;;;;;4.00;2.92;;;18.10;99.90;;;;;;5080036;28;20044;-78
2023/09/17 08:52:40;;;;;;;3.15;2.85;;;18.20;99.90;;;;;;5093595;28;20040;-78
2023/09/17 08:55:09;;;;;;;4.47;2.97;;;18.20;99.90;;;;;;5084374;28;20460;-79
2023/09/17 08:57:40;;;;;;;6.60;3.03;;;18.30;99.90;;;;;;5081468;28;20040;-77
2023/09/17 09:00:10;;;;;;;3.35;3.05;;;18.30;99.90;;;;;;5092251;28;20047;-78
2023/09/17 09:02:44;;;;;;;3.13;2.92;;;18.30;99.90;;;;;;5099738;28;20055;-79
2023/09/17 09:05:14;;;;;;;3.53;2.53;;;18.30;99.90;;;;;;5084660;28;20044;-77
2023/09/17 09:07:41;;;;;;;1.88;1.77;;;18.30;99.90;;;;;;5079379;28;20049;-78
2023/09/17 09:10:07;;;;;;;3.35;2.42;;;18.40;99.90;;;;;;5088800;28;20039;-78
2023/09/17 09:12:33;;;;;;;1.75;1.65;;;18.50;99.90;;;;;;5089888;28;20048;-80
2023/09/17 09:14:59;;;;;;;2.70;2.28;;;18.40;99.90;;;;;;5091263;28;20401;-78
2023/09/17 09:17:26;;;;;;;1.98;1.88;;;18.50;99.90;;;;;;5083455;28;20052;-78
2023/09/17 09:19:55;;;;;;;3.25;3.05;;;18.50;99.90;;;;;;5081900;28;20056;-78
2023/09/17 09:22:20;;;;;;;6.38;3.58;;;18.50;99.90;;;;;;5088343;28;20056;-78
2023/09/17 09:24:48;;;;;;;3.42;3.22;;;18.50;99.90;;;;;;5095160;28;21179;-78
2023/09/17 09:27:15;;;;;;;3.15;2.92;;;18.50;99.90;;;;;;5087594;28;20117;-78
2023/09/17 09:29:43;;;;;;;3.92;3.63;;;18.50;99.90;;;;;;5085357;28;20044;-78
2023/09/17 09:32:10;;;;;;;4.18;3.88;;;18.60;99.90;;;;;;5100870;28;20135;-78
2023/09/17 09:34:41;;;;;;;8.23;4.53;;;18.60;99.90;;;;;;5088681;28;20051;-78
2023/09/17 09:37:11;;;;;;;3.25;2.92;;;18.60;99.90;;;;;;5079614;28;20634;-80
2023/09/17 09:39:37;;;;;;;2.60;2.40;;;18.50;99.90;;;;;;5094143;28;20944;-80
2023/09/17 09:42:07;;;;;;;1.42;1.38;;;18.60;99.90;;;;;;5091413;28;20050;-79
2023/09/17 09:44:35;;;;;;;1.65;1.55;;;18.60;99.90;;;;;;5086248;28;20055;-79
2023/09/17 09:47:02;;;;;;;;;;;18.60;99.90;;;;;;5089143;28;20048;-79
2023/09/17 09:49:28;;;;;;;2.72;2.53;;;18.60;99.90;;;;;;5091425;28;19923;-79
2023/09/17 09:51:57;;;;;;;1.88;1.77;;;18.60;99.90;;;;;;5089630;28;20055;-79
2023/09/17 09:54:23;;;;;;;2.08;1.98;;;18.60;99.90;;;;;;5084868;28;20055;-80
2023/09/17 09:56:49;;;;;;;3.92;3.63;;;18.60;99.90;;;;;;5082796;28;20036;-80
2023/09/17 09:59:16;;;;;;;2.20;2.10;;;18.60;99.90;;;;;;5086766;28;20060;-79
2023/09/17 10:01:42;;;;;;;3.05;2.80;;;18.50;99.90;;;;;;5082730;28;20047;-80
2023/09/17 10:04:11;;;;;;;1.33;1.33;;;18.50;99.90;;;;;;5087842;28;20046;-80
2023/09/17 10:06:42;;;;;;;2.47;2.28;;;18.50;99.90;;;;;;5090924;28;20044;-80
2023/09/17 10:09:14;;;;;;;5.03;2.67;;;18.60;99.90;;;;;;5100467;28;20048;-80
2023/09/17 10:11:54;;;;;;;4.90;2.72;;;18.60;99.90;;;;;;5078098;28;20042;-80
2023/09/17 10:14:26;;;;;;;3.05;2.85;;;18.60;99.90;;;;;;5086857;28;20509;-80
2023/09/17 10:16:56;;;;;;;1.45;1.35;;;18.60;99.90;;;;;;5087526;28;20098;-79
2023/09/17 10:19:23;;;;;;;2.28;2.17;;;18.70;99.90;;;;;;5091584;28;20040;-79
2023/09/17 10:21:51;;;;;;;3.92;3.63;;;18.70;99.90;;;;;;5087389;28;20064;-78
2023/09/17 10:24:18;;;;;;;1.92;1.83;;;18.70;99.90;;;;;;5086145;28;20059;-78
2023/09/17 10:26:45;;;;;;;3.58;2.33;;;18.70;99.90;;;;;;5096450;28;20045;-78
2023/09/17 10:29:12;;;;;;;4.82;3.03;;;18.70;99.90;;;;;;5089068;28;20044;-78
2023/09/17 10:31:40;;;;;;;2.28;2.17;;;18.80;99.90;;;;;;5084491;28;20101;-78
2023/09/17 10:34:06;;;;;;;4.68;2.55;;;18.90;99.90;;;;;;5086799;28;20158;-78
2023/09/17 10:36:33;;;;;;;1.45;1.42;;;19.00;99.90;;;;;;5088488;28;20048;-78
2023/09/17 10:38:59;;;;;;;1.92;1.83;;;19.10;99.90;;;;;;5090500;28;20047;-78
2023/09/17 10:41:29;;;;;;;2.58;2.38;;;19.20;99.90;;;;;;5090368;28;20048;-78
2023/09/17 10:43:57;;;;;;;2.35;2.20;;;19.30;99.90;;;;;;5085064;28;20492;-78
2023/09/17 10:46:23;;;;;;;;;;;19.40;99.90;;;;;;5082445;28;20052;-78
2023/09/17 10:48:50;;;;;;;2.42;2.22;;;19.50;99.90;;;;;;5084281;28;19974;-77
2023/09/17 10:51:19;;;;;;;1.27;1.25;;;19.60;99.90;;;;;;5087255;28;20051;-78
2023/09/17 10:53:44;;;;;;;1.55;1.50;;;19.60;99.90;;;;;;5085495;28;20097;-78
2023/09/17 10:56:13;;;;;;;1.90;1.80;;;19.60;99.90;;;;;;5080881;28;20491;-78
2023/09/17 10:58:52;;;;;;;1.90;1.80;;;19.60;99.90;;;;;;5089995;28;20040;-79
2023/09/17 11:01:22;;;;;;;1.75;1.58;;;19.60;99.90;;;;;;5103621;28;20043;-78
2023/09/17 11:03:55;;;;;;;1.20;1.20;;;19.60;99.90;;;;;;5088829;28;20048;-78
2023/09/17 11:06:26;;;;;;;2.05;1.42;;;19.70;99.90;;;;;;5084704;28;20467;-78
2023/09/17 11:08:54;;;;;;;1.95;1.85;;;19.70;99.90;;;;;;5086131;28;20040;-77
2023/09/17 11:11:25;;;;;;;3.47;3.17;;;19.70;99.90;;;;;;5085968;28;20047;-78
2023/09/17 11:13:53;;;;;;;1.27;1.17;;;19.60;99.90;;;;;;5105508;27;20052;-77
2023/09/17 11:16:19;;;;;;;;;;;19.60;99.90;;;;;;5088490;28;20051;-77
2023/09/17 11:19:02;;;;;;;1.73;1.15;;;19.50;99.90;;;;;;5103865;28;20466;-78
2023/09/17 11:21:28;;;;;;;1.05;1.05;;;19.50;99.90;;;;;;5090299;28;20685;-79
2023/09/17 11:23:55;;;;;;;2.85;1.20;;;19.50;99.90;;;;;;5093487;28;20046;-80
2023/09/17 11:26:29;;;;;;;1.97;1.87;;;19.50;99.90;;;;;;5084019;28;20052;-80
2023/09/17 11:28:56;;;;;;;1.30;1.20;;;19.60;99.90;;;;;;5081816;28;20496;-80
2023/09/17 11:31:24;;;;;;;1.88;1.77;;;19.60;99.90;;;;;;5087369;28;20040;-80
2023/09/17 11:33:51;;;;;;;1.50;1.40;;;19.80;99.90;;;;;;5091505;28;20493;-79
2023/09/17 11:36:17;;;;;;;1.85;1.75;;;20.10;99.90;;;;;;5085734;28;20464;-79
2023/09/17 11:38:47;;;;;;;2.25;2.15;;;20.40;99.90;;;;;;5088379;28;20178;-79
2023/09/17 11:41:15;;;;;;;1.42;1.30;;;20.70;99.90;;;;;;5087134;28;20040;-79
2023/09/17 11:43:46;;;;;;;2.05;1.95;;;20.80;99.90;;;;;;5091151;28;20051;-79
2023/09/17 11:46:14;;;;;;;1.50;1.48;;;20.90;99.90;;;;;;5093629;28;20044;-80
2023/09/17 11:48:43;;;;;;;2.00;1.90;;;21.00;99.90;;;;;;5089310;28;20040;-79
2023/09/17 11:51:29;;;;;;;1.35;1.35;;;21.10;99.90;;;;;;5087455;28;20052;-79
2023/09/17 11:54:00;;;;;;;3.20;2.55;;;21.30;99.90;;;;;;5087731;28;20055;-80
2023/09/17 11:56:32;;;;;;;2.03;1.92;;;21.50;99.90;;;;;;5087250;28;20093;-79
2023/09/17 11:59:09;;;;;;;2.05;1.73;;;21.60;99.90;;;;;;5089412;28;20040;-78
2023/09/17 12:01:41;;;;;;;0.95;0.95;;;21.70;99.90;;;;;;5088250;28;20050;-79
2023/09/17 12:04:08;;;;;;;2.20;2.10;;;21.70;99.90;;;;;;5091262;28;20040;-79
2023/09/17 12:06:42;;;;;;;1.02;1.02;;;21.70;99.90;;;;;;5097885;28;20092;-79
2023/09/17 12:09:21;;;;;;;5.30;1.85;;;21.60;99.90;;;;;;5083199;28;20058;-79
2023/09/17 12:11:48;;;;;;;0.98;0.98;;;21.60;99.90;;;;;;5087179;28;20535;-78
2023/09/17 12:14:16;;;;;;;1.35;1.25;;;21.60;99.90;;;;;;5090700;28;20184;-79
2023/09/17 12:16:41;;;;;;;;;;;21.60;99.90;;;;;;5087443;28;20043;-79
2023/09/17 12:19:07;;;;;;;0.82;0.82;;;21.70;99.90;;;;;;5078295;28;19928;-79
2023/09/17 12:21:40;;;;;;;1.05;1.00;;;21.80;99.90;;;;;;5066814;28;20408;-79
2023/09/17 12:24:08;;;;;;;0.68;0.68;;;21.80;99.90;;;;;;5067851;28;20048;-79
2023/09/17 12:26:47;;;;;;;;;;;21.90;99.90;;;;;;5063383;28;20118;-79
2023/09/17 12:29:13;;;;;;;1.45;1.30;;;22.00;99.90;;;;;;5066734;28;20007;-80
2023/09/17 12:31:41;;;;;;;1.30;1.20;;;22.00;99.90;;;;;;5056289;28;20182;-78
2023/09/17 12:34:06;;;;;;;0.90;0.90;;;22.10;99.90;;;;;;5066523;28;20067;-79
2023/09/17 12:36:32;;;;;;;1.08;1.02;;;22.10;99.90;;;;;;5070335;28;20580;-79
2023/09/17 12:38:59;;;;;;;0.60;0.60;;;22.20;99.90;;;;;;5067618;28;20086;-79
2023/09/17 12:41:26;;;;;;;0.40;0.40;;;22.20;99.90;;;;;;5073979;28;20058;-78
2023/09/17 12:43:51;;;;;;;0.95;0.95;;;22.30;99.90;;;;;;5075230;28;20071;-79
2023/09/17 12:46:17;;;;;;;0.45;0.45;;;22.40;99.90;;;;;;5062532;28;20124;-79
2023/09/17 12:48:43;;;;;;;0.50;0.50;;;22.40;99.90;;;;;;5063482;28;20412;-79